KHTH

Hawthorne Industrial Airport

Hawthorne, Nevada, USA
METAR KHTH 191515Z AUTO 00000KT 10SM CLR 22/M01 A3016 RMK A01
Observed Flight Rules
Aug-19 @ 15:15 UTC (23 minutes ago) Visual Flight Rules
Visibility Clouds
10 miles
  • Clear skies
Temperatures Readings
Current 22°C / 72°F
Dewpoint -1°C / 30°F
Humidity 22%
Altimeter 30.16" Hg
Pressure 1021 hPa
METAR KHTH 191515Z AUTO 00000KT 10SM CLR 22/M01 A3016 RMK A01
Observed Flight Rules
Aug-19 @ 15:15 UTC
(23 minutes ago)
VFR
Clouds
  • Clear skies
Temperature Dewpoint
22°C / 72°F -1°C / 30°F
Humidity Altimeter Pressure
22% 30.16" Hg 1021 hPa